Aktau Airport
UATE : now visible

Airfield :











YOU CAN JOIN US ON...

 
LOGIN :

Register | Disclaimer

   EN    FR    IT 

 









Legend :    VFR   Marginal VFR   IFR   Intensive IFR   Very Intensive IFR
Visi :
Ceiling :
>= 8 km
>= 3000ft
5 to 8 km
1000 to 3000 ft
1500m to 5 km
500 to 1000 ft
800 to 1500m
200 to 500 ft
< 800m
< 200 ft
Symbols :   Thunderstorms  Fog  Heavy snow  Heavy precipitations  Wind > 20 kt






- Airport Elevation : 73 ft
- IATA code : SCO


UATE - Aktau

CURRENT METAR :
  • 260200Z 30006G11MPS 260V340 9999 BKN036 03/M02 Q1017 R30/1///65 NOSIG RMK QFE761/1015

EXPIRED METARs :
  • 260130Z 30005MPS 250V340 9999 BKN033 03/M02 Q1017 R30/1///65 NOSIG RMK QFE761/1015
  • 260100Z 30006G11MPS 250V340 9999 BKN033 03/M02 Q1016 R30/1///65 NOSIG RMK QFE761/1014
  • 260030Z 31009G15MPS 260V350 9999 BKN040 04/M03 Q1016 R30/1///65 NOSIG RMK QFE760/1014
  • 260000Z 30009G15MPS 260V340 9999 BKN040 04/M02 Q1016 R30/1///65 NOSIG RMK QFE760/1014
  • 252330Z 30009G15MPS 260V360 9999 SCT043CB 04/M02 Q1015 R30/1///65 NOSIG RMK QFE760/1013

TAF TAF UATE
Valid from the 26 at 00:00 until the 27 at 00:00 UTC


252303Z 2600/2624 30011G17MPS 9999 SCT015 BKN033CB TX06/2609Z TN02/2602Z
TEMPO 2600/2603 -SHRA
BECMG 2612/2614 30007MPS
BECMG 2618/2620 17006MPS



MET'MAP, your aeronautical weather chart ! - Copyright ORBIFLY December 2007 - Disclaimer

ORBIFLY MET'MAP TEAM :

Programming & Development : Alexandra Zaïnal
Concept & original design : Baudouin d'Aumeries
Assistance for programming : Marc-Olivier Méhu
Technical & hardware support : Manuel Goepfert

Contact : metmap@orbifly.com




SOURCES & CREDITS :

   NOAA       Earth
Advisory